Terminal Aerodrome Forecast
Issued by NWS Riverton, WY

Home | Current Version | Previous Version | Text Only | Print | Product List | Glossary On
Versions: 1 2 3 4 5 6 7 8 9 10 11 12 13 14
000
FTUS45 KRIW 250043 AAA
TAFRIW
TAF AMD
KRIW 250043Z 2501/2524 02014G24KT P6SM FEW080 SCT120
     FM250200 04014G22KT P6SM SCT080 BKN100
     FM250600 04010KT P6SM BKN040
     FM250800 05010KT P6SM VCSH BKN025
     FM251200 VRB04KT P6SM -SHRA BKN040=

USA.gov is the U.S. government's official web portal to all federal, state and local government web resources and services.